Pagrindinis puslapis
METAR-TAF:

METAR-TAF

Oro uostai :

Monte Argentario, Italija

platuma: 42-23N, ilguma: 011-10E, Aukštis: 630 m

Dabartinis oras

Ataskaita buvo paskelbta 10 valandos ir 45 minutes, ne 17:55 UTC
Ramus vėjas
Temperatūra 9°C
Drėgmė 87%
Slėgis 1024 hPa
Matomumas 10 km arba daugiau
Mažai debesys ne aukštis 400 ft

METAR: LIQO 171755Z 00000KT 9999 FEW004 09/07 Q1024 RMK BKN SCT050 VAL NIL NC VIS MIN 9999

Laikas: 05:40 (04:40 UTC)


TAF: trūkstamas

Orai ataskaitas ir orų prognozės (METAR, TAF).

turimą stotys yra geltonos ir raudonos taškus žemėlapyje.

Perkelti pele per norėdami pamatyti stoties vardą.

Tada spustelėkite, norėdami matyti oro stebėjimo ir prognozės.

Norėdami pakeisti žemėlapį: spustelėkite ant žalios mygtukų su juodo kryžiaus žemyn,; žalią mygtuką su brūkšneliu, jei norite nutolinti; arba žalių rodyklių gretimoms žemėlapius.


METAR-TAF: